createdAt,value
2023-03-19T00:03:02.538Z,12.55
2023-03-19T00:07:59.096Z,10.77
2023-03-19T00:12:55.662Z,11.27
2023-03-19T00:17:52.410Z,12.00
2023-03-19T00:22:48.845Z,11.15
2023-03-19T00:27:45.301Z,12.48
2023-03-19T00:32:42.071Z,11.75
2023-03-19T00:37:38.614Z,11.63
2023-03-19T00:42:35.062Z,10.82
2023-03-19T00:47:32.114Z,10.98
2023-03-19T00:52:28.490Z,11.63
2023-03-19T00:57:25.129Z,11.25
2023-03-19T01:02:21.563Z,11.88
2023-03-19T01:07:17.973Z,10.88
2023-03-19T01:12:14.411Z,10.23
2023-03-19T01:17:10.895Z,10.95
2023-03-19T01:22:07.571Z,10.82
2023-03-19T01:27:05.077Z,10.50
2023-03-19T01:32:01.831Z,10.07
2023-03-19T01:36:58.286Z,10.32
2023-03-19T01:41:54.667Z,10.10
2023-03-19T01:46:51.451Z,9.77
2023-03-19T01:51:48.380Z,9.02
2023-03-19T01:56:48.734Z,9.45
2023-03-19T02:01:56.806Z,10.00
2023-03-19T02:06:56.235Z,9.07
2023-03-19T02:11:53.415Z,9.63
2023-03-19T02:16:49.972Z,9.32
2023-03-19T02:21:46.694Z,9.65
2023-03-19T02:26:45.238Z,9.00
2023-03-19T02:31:41.678Z,8.52
2023-03-19T02:36:44.271Z,7.97
2023-03-19T02:41:41.972Z,8.43
2023-03-19T02:46:38.628Z,8.18
2023-03-19T02:51:35.738Z,7.88
2023-03-19T02:56:35.741Z,8.73
2023-03-19T03:01:32.260Z,7.90
2023-03-19T03:06:28.656Z,8.32
2023-03-19T03:11:25.513Z,8.15
2023-03-19T03:16:22.660Z,8.38
2023-03-19T03:21:21.233Z,7.57
2023-03-19T03:26:17.700Z,7.53
2023-03-19T03:31:14.383Z,7.57
2023-03-19T03:36:11.117Z,8.02
2023-03-19T03:41:10.263Z,8.10
2023-03-19T03:46:08.558Z,8.40
2023-03-19T03:51:05.275Z,7.70
2023-03-19T03:56:02.376Z,8.02
2023-03-19T04:00:58.800Z,8.10
2023-03-19T04:05:55.224Z,8.50
2023-03-19T04:10:51.682Z,8.07
2023-03-19T04:15:48.610Z,7.53
2023-03-19T04:20:45.036Z,8.48
2023-03-19T04:25:41.467Z,8.45
2023-03-19T04:30:38.353Z,8.15
2023-03-19T04:35:35.126Z,8.00
2023-03-19T04:40:31.708Z,7.70
2023-03-19T04:45:28.264Z,8.65
2023-03-19T04:50:24.964Z,8.55
2023-03-19T04:55:21.438Z,8.07
2023-03-19T05:00:18.187Z,9.43
2023-03-19T05:05:14.611Z,8.93
2023-03-19T05:10:11.849Z,8.68
2023-03-19T05:15:08.870Z,8.38
2023-03-19T05:20:05.719Z,9.40
2023-03-19T05:25:02.543Z,9.05
2023-03-19T05:30:00.151Z,9.25
2023-03-19T05:34:56.630Z,11.07
2023-03-19T05:39:53.048Z,10.20
2023-03-19T05:44:49.855Z,10.00
2023-03-19T05:49:46.312Z,9.88
2023-03-19T05:54:42.775Z,10.55
2023-03-19T05:59:39.204Z,11.10
2023-03-19T06:04:35.629Z,10.95
2023-03-19T06:09:32.076Z,11.02
2023-03-19T06:14:28.468Z,11.65
2023-03-19T06:19:24.926Z,11.38
2023-03-19T06:24:21.379Z,11.05
2023-03-19T06:29:17.915Z,11.00
2023-03-19T06:34:14.309Z,11.15
2023-03-19T06:39:10.771Z,11.07
2023-03-19T06:44:07.356Z,11.35
2023-03-19T06:49:03.936Z,12.30
2023-03-19T06:54:00.345Z,11.10
2023-03-19T06:58:56.825Z,12.15
2023-03-19T07:03:53.328Z,12.75
2023-03-19T07:08:49.889Z,12.88
2023-03-19T07:13:46.586Z,12.20
2023-03-19T07:18:43.020Z,12.85
2023-03-19T07:23:40.410Z,11.30
2023-03-19T07:28:36.973Z,12.23
2023-03-19T07:33:33.638Z,12.10
2023-03-19T07:38:30.414Z,12.07
2023-03-19T07:43:26.847Z,10.85
2023-03-19T07:48:23.256Z,10.10
2023-03-19T07:53:20.452Z,11.10
2023-03-19T07:58:17.013Z,10.98
2023-03-19T08:03:13.772Z,10.60
2023-03-19T08:08:10.219Z,10.32
2023-03-19T08:13:06.787Z,10.35
2023-03-19T08:18:04.920Z,11.00
2023-03-19T08:23:01.669Z,10.50
2023-03-19T08:27:59.366Z,10.32
2023-03-19T08:32:56.399Z,10.02
2023-03-19T08:37:53.554Z,9.70
2023-03-19T08:42:51.007Z,10.13
2023-03-19T08:47:47.880Z,9.88
2023-03-19T08:52:44.438Z,9.18
2023-03-19T08:57:40.872Z,8.95
2023-03-19T09:02:37.329Z,9.25
2023-03-19T09:07:33.771Z,8.68
2023-03-19T09:12:32.765Z,8.35
2023-03-19T09:17:29.404Z,9.13
2023-03-19T09:22:26.224Z,8.98
2023-03-19T09:27:23.424Z,8.05
2023-03-19T09:32:20.086Z,7.45
2023-03-19T09:37:16.588Z,7.63
2023-03-19T09:42:31.728Z,7.35
2023-03-19T09:47:32.665Z,6.43
2023-03-19T09:52:41.537Z,6.80
2023-03-19T09:57:38.933Z,7.88
2023-03-19T10:02:43.611Z,7.22
2023-03-19T10:08:05.634Z,6.97
2023-03-19T10:13:23.792Z,7.80
2023-03-19T10:18:36.014Z,7.10
2023-03-19T10:23:53.063Z,6.80
2023-03-19T10:29:03.352Z,6.75
2023-03-19T10:34:15.190Z,7.22
2023-03-19T10:39:15.393Z,7.07
2023-03-19T10:44:28.458Z,7.05
2023-03-19T10:49:25.330Z,7.10
2023-03-19T10:54:26.653Z,7.32
2023-03-19T10:59:25.302Z,7.17
2023-03-19T11:04:23.014Z,7.10
2023-03-19T11:09:32.725Z,6.55
2023-03-19T11:14:36.474Z,7.00
2023-03-19T11:19:40.985Z,6.70
2023-03-19T11:24:42.310Z,6.90
2023-03-19T11:29:44.304Z,6.60
2023-03-19T11:34:59.444Z,8.63
2023-03-19T11:40:40.146Z,7.82
2023-03-19T11:46:05.437Z,6.35
2023-03-19T11:51:05.477Z,6.65
2023-03-19T11:56:33.223Z,7.63
2023-03-19T12:01:49.089Z,7.78
2023-03-19T12:06:54.486Z,7.70
2023-03-19T12:12:17.410Z,8.75
2023-03-19T12:17:34.233Z,8.10
2023-03-19T12:22:48.640Z,8.02
2023-03-19T12:28:16.169Z,8.43
2023-03-19T12:33:36.547Z,8.80
2023-03-19T12:38:48.259Z,8.27
2023-03-19T12:43:49.786Z,8.88
2023-03-19T12:49:18.455Z,8.83
2023-03-19T12:54:22.716Z,8.38
2023-03-19T12:59:37.411Z,8.75
2023-03-19T13:04:42.960Z,8.77
2023-03-19T13:09:45.006Z,7.60
2023-03-19T13:14:53.399Z,7.50
2023-03-19T13:19:54.142Z,6.82
2023-03-19T13:24:53.426Z,6.68
2023-03-19T13:30:09.344Z,6.97
2023-03-19T13:35:31.622Z,7.40
2023-03-19T13:40:56.483Z,7.43
2023-03-19T13:46:05.821Z,7.65
2023-03-19T13:51:04.368Z,7.03
2023-03-19T13:56:05.745Z,7.70
2023-03-19T14:01:06.864Z,7.40
2023-03-19T14:06:03.719Z,7.07
2023-03-19T14:11:03.522Z,9.48
2023-03-19T14:16:06.247Z,6.63
2023-03-19T14:21:08.880Z,6.75
2023-03-19T14:26:23.171Z,7.28
2023-03-19T14:31:32.841Z,6.85
2023-03-19T14:36:30.782Z,7.88
2023-03-19T14:41:32.614Z,8.43
2023-03-19T14:46:41.735Z,8.00
2023-03-19T14:51:51.104Z,7.38
2023-03-19T14:56:48.049Z,9.32
2023-03-19T15:01:49.413Z,7.75
2023-03-19T15:06:59.004Z,8.38
2023-03-19T15:12:10.266Z,8.70
2023-03-19T15:17:16.023Z,9.63
2023-03-19T15:22:15.632Z,8.68
2023-03-19T15:27:23.784Z,8.82
2023-03-19T15:33:09.115Z,9.18
2023-03-19T15:38:00.170Z,10.25
2023-03-19T15:43:00.606Z,9.50
2023-03-19T15:48:16.442Z,12.02
2023-03-19T15:53:19.165Z,15.20
2023-03-19T15:58:26.029Z,15.02
2023-03-19T16:03:28.200Z,13.63
2023-03-19T16:08:28.712Z,12.80
2023-03-19T16:13:38.498Z,13.95
2023-03-19T16:19:02.451Z,13.00
2023-03-19T16:24:02.620Z,13.15
2023-03-19T16:29:34.101Z,12.40
2023-03-19T16:34:46.747Z,13.45
2023-03-19T16:39:54.522Z,13.88
2023-03-19T16:44:51.030Z,14.07
2023-03-19T16:49:47.886Z,13.00
2023-03-19T16:54:44.852Z,12.50
2023-03-19T16:59:42.578Z,13.43
2023-03-19T17:04:39.297Z,13.60
2023-03-19T17:09:36.676Z,13.32
2023-03-19T17:14:34.544Z,14.10
2023-03-19T17:19:35.848Z,14.48
2023-03-19T17:24:34.056Z,14.30
2023-03-19T17:29:31.651Z,15.15
2023-03-19T17:34:33.135Z,14.52
2023-03-19T17:39:36.234Z,18.30
2023-03-19T17:44:32.691Z,18.15
2023-03-19T17:49:31.693Z,19.73
2023-03-19T17:54:28.303Z,19.35
2023-03-19T17:59:24.742Z,18.45
2023-03-19T18:04:22.359Z,20.65
2023-03-19T18:09:25.537Z,21.33
2023-03-19T18:14:22.036Z,20.73
2023-03-19T18:19:24.812Z,20.60
2023-03-19T18:24:21.242Z,22.20
2023-03-19T18:29:17.804Z,21.73
2023-03-19T18:34:16.396Z,21.02
2023-03-19T18:39:14.653Z,21.40
2023-03-19T18:44:12.193Z,24.83
2023-03-19T18:49:26.072Z,23.50
2023-03-19T18:54:22.582Z,22.80
2023-03-19T18:59:30.758Z,22.23
2023-03-19T19:04:29.678Z,24.50
2023-03-19T19:09:26.432Z,23.58
2023-03-19T19:14:24.697Z,22.67
2023-03-19T19:19:23.916Z,24.63
2023-03-19T19:24:21.338Z,21.58
2023-03-19T19:29:24.289Z,22.65
2023-03-19T19:34:21.600Z,23.75
2023-03-19T19:39:18.884Z,24.20
2023-03-19T19:44:22.349Z,24.85
2023-03-19T19:49:19.624Z,24.50
2023-03-19T19:54:16.036Z,24.13
2023-03-19T19:59:15.286Z,25.92
2023-03-19T20:04:14.932Z,27.02
2023-03-19T20:09:11.339Z,25.48
2023-03-19T20:14:13.096Z,28.13
2023-03-19T20:19:17.385Z,25.47
2023-03-19T20:24:13.775Z,30.45
2023-03-19T20:29:15.569Z,29.30
2023-03-19T20:34:22.526Z,30.67
2023-03-19T20:39:25.709Z,29.98
2023-03-19T20:44:25.515Z,34.55
2023-03-19T20:49:22.498Z,31.20
2023-03-19T20:54:18.930Z,35.40
2023-03-19T20:59:15.462Z,28.52
2023-03-19T21:04:18.685Z,26.50
2023-03-19T21:09:15.098Z,25.42
2023-03-19T21:14:18.681Z,24.77
2023-03-19T21:19:15.721Z,25.42
2023-03-19T21:24:19.219Z,24.33
2023-03-19T21:29:24.183Z,24.70
2023-03-19T21:34:20.664Z,20.98
2023-03-19T21:39:18.125Z,19.90
2023-03-19T21:44:20.084Z,22.13
2023-03-19T21:49:17.715Z,22.25
2023-03-19T21:54:15.788Z,18.85
2023-03-19T21:59:18.856Z,18.52
2023-03-19T22:04:15.637Z,19.88
2023-03-19T22:09:12.673Z,19.20
2023-03-19T22:14:38.432Z,19.85
2023-03-19T22:19:34.875Z,22.17
2023-03-19T22:24:31.259Z,21.52
2023-03-19T22:29:27.822Z,19.88
2023-03-19T22:34:27.835Z,21.00
2023-03-19T22:39:24.450Z,20.65
2023-03-19T22:44:26.331Z,19.40
2023-03-19T22:49:24.475Z,22.02
2023-03-19T22:54:21.070Z,21.60
2023-03-19T22:59:17.523Z,20.90
2023-03-19T23:04:21.935Z,21.08
2023-03-19T23:09:30.619Z,22.90
2023-03-19T23:14:31.041Z,19.77
2023-03-19T23:19:31.069Z,20.48
2023-03-19T23:24:27.793Z,20.00
2023-03-19T23:29:29.366Z,21.30
2023-03-19T23:34:26.900Z,22.63
2023-03-19T23:39:24.485Z,21.08
2023-03-19T23:44:21.948Z,20.45
2023-03-19T23:49:29.046Z,21.02
2023-03-19T23:54:34.517Z,23.80
2023-03-19T23:59:34.978Z,24.27
